Time;durP1;ratioP1;P1;durP2;ratioP2;P2;SDS_P1;SDS_P2;PMS_P1;PMS_P2;Temp;Humidity;BMP_temperature;BMP_pressure;BME280_temperature;BME280_humidity;BME280_pressure;Samples;Min_cycle;Max_cycle;Signal;HPM_P1;HPM_P2
2021/10/09 00:00:01;;;;;;;;;22.60;22.40;;;;;16.67;60.47;102001.56;2091931;28;48129;-51
2021/10/09 00:01:01;;;;;;;;;23.75;23.00;;;;;16.67;60.41;102001.56;2092531;28;47701;-49
2021/10/09 00:02:02;;;;;;;;;20.00;19.75;;;;;16.66;60.14;101995.34;2091960;28;45971;-49
2021/10/09 00:03:02;;;;;;;;;22.00;22.00;;;;;16.66;60.32;101997.13;2087974;28;47258;-50
2021/10/09 00:04:03;;;;;;;;;21.00;21.00;;;;;16.65;60.27;102003.41;2085927;28;47714;-51
2021/10/09 00:05:07;;;;;;;;;18.25;17.50;;;;;16.64;60.40;101999.84;2089598;28;47213;-47
2021/10/09 00:06:07;;;;;;;;;19.00;17.60;;;;;16.63;60.41;102006.09;2091638;28;47098;-52
2021/10/09 00:07:08;;;;;;;;;24.00;23.50;;;;;16.62;60.51;102004.34;2092114;28;46004;-49
2021/10/09 00:08:14;;;;;;;;;22.00;20.20;;;;;16.61;60.63;102010.63;2091081;28;46379;-46
2021/10/09 00:09:14;;;;;;;;;20.40;20.40;;;;;16.59;60.43;102012.47;2091466;28;47529;-51
2021/10/09 00:10:24;;;;;;;;;18.00;18.00;;;;;16.58;60.42;101994.66;2092244;28;48043;-47
2021/10/09 00:11:38;;;;;;;;;22.40;22.40;;;;;16.59;60.82;102008.91;2086959;28;46158;-52
2021/10/09 00:12:38;;;;;;;;;20.80;20.80;;;;;16.56;60.54;102000.97;2097744;27;47137;-48
2021/10/09 00:13:38;;;;;;;;;20.00;19.50;;;;;16.57;60.93;102013.44;2098537;28;45382;-50
2021/10/09 00:14:39;;;;;;;;;23.75;21.25;;;;;16.54;60.84;102000.13;2091534;28;47115;-50
2021/10/09 00:15:40;;;;;;;;;19.00;19.00;;;;;16.55;60.61;102004.56;2091472;28;47391;-52
2021/10/09 00:16:44;;;;;;;;;20.00;18.75;;;;;16.54;60.55;102006.38;2092271;28;48005;-48
2021/10/09 00:17:45;;;;;;;;;21.00;20.40;;;;;16.55;60.60;102004.56;2087567;28;47425;-49
2021/10/09 00:18:45;;;;;;;;;24.00;22.25;;;;;16.54;60.84;102000.13;2093518;28;47477;-51
2021/10/09 00:19:46;;;;;;;;;19.00;19.00;;;;;16.52;60.67;102002.84;2091167;28;45241;-50
2021/10/09 00:20:46;;;;;;;;;20.00;20.00;;;;;16.52;60.67;101996.63;2092032;28;47235;-50
2021/10/09 00:21:47;;;;;;;;;20.25;18.75;;;;;16.51;60.95;101993.03;2091973;28;48148;-49
2021/10/09 00:22:48;;;;;;;;;22.50;21.25;;;;;16.50;61.13;101996.63;2091277;28;47742;-48
2021/10/09 00:23:48;;;;;;;;;18.75;18.75;;;;;16.49;61.12;101998.44;2082517;28;46528;-51
2021/10/09 00:24:50;;;;;;;;;20.25;19.50;;;;;16.49;60.56;101993.06;2083120;28;47910;-49
2021/10/09 00:25:51;;;;;;;;;20.40;18.80;;;;;16.49;60.84;101992.19;2091208;28;47158;-50
2021/10/09 00:26:51;;;;;;;;;25.00;20.60;;;;;16.48;60.76;101995.78;2092109;28;45306;-49
2021/10/09 00:27:52;;;;;;;;;18.75;18.75;;;;;16.47;60.58;101999.41;2092156;28;47411;-47
2021/10/09 00:28:53;;;;;;;;;22.75;22.75;;;;;16.46;61.16;101994.97;2091920;28;46353;-49
2021/10/09 00:29:53;;;;;;;;;19.25;19.00;;;;;16.46;60.93;102000.31;2092035;28;48065;-49
2021/10/09 00:30:54;;;;;;;;;23.50;19.75;;;;;16.45;60.86;102001.25;2092210;28;46844;-46
2021/10/09 00:31:54;;;;;;;;;23.25;21.50;;;;;16.43;60.64;102003.97;2091941;28;47529;-47
2021/10/09 00:32:55;;;;;;;;;20.75;19.25;;;;;16.43;60.90;101997.72;2092113;28;47943;-47
2021/10/09 00:33:55;;;;;;;;;20.00;19.25;;;;;16.42;60.84;102002.22;2091733;28;47305;-48
2021/10/09 00:34:55;;;;;;;;;17.25;16.75;;;;;16.41;60.90;101995.09;2091841;28;46502;-51
2021/10/09 00:35:56;;;;;;;;;19.25;19.00;;;;;16.39;60.77;101996.94;2091945;28;47219;-47
2021/10/09 00:36:56;;;;;;;;;22.00;21.00;;;;;16.38;60.79;101997.81;2091770;28;48076;-48
2021/10/09 00:37:58;;;;;;;;;21.50;20.00;;;;;16.37;61.22;101996.06;2091680;28;48260;-47
2021/10/09 00:38:58;;;;;;;;;22.60;20.20;;;;;16.37;60.81;102004.09;2091176;28;47063;-50
2021/10/09 00:40:00;;;;;;;;;20.50;17.75;;;;;16.36;61.01;101991.63;2082943;28;46948;-49
2021/10/09 00:41:01;;;;;;;;;21.00;19.60;;;;;16.36;60.94;101993.44;2083114;28;48622;-49
2021/10/09 00:42:04;;;;;;;;;23.20;21.00;;;;;16.35;61.28;101999.72;2091476;28;47358;-46
2021/10/09 00:43:05;;;;;;;;;24.00;21.60;;;;;16.34;61.15;101990.78;2099214;28;46914;-48
2021/10/09 00:44:14;;;;;;;;;16.75;16.75;;;;;16.34;60.99;101992.59;2091738;28;45439;-48
2021/10/09 00:45:15;;;;;;;;;22.20;22.20;;;;;16.34;61.05;101993.47;2091740;28;45694;-48
2021/10/09 00:46:15;;;;;;;;;22.25;21.00;;;;;16.34;60.94;101996.16;2090892;28;47300;-49
2021/10/09 00:47:17;;;;;;;;;25.75;25.25;;;;;16.33;61.08;101997.06;2099030;28;45578;-49
2021/10/09 00:48:18;;;;;;;;;21.40;20.20;;;;;16.32;61.04;101998.00;2091360;28;47821;-47
2021/10/09 00:49:18;;;;;;;;;23.75;22.25;;;;;16.32;60.99;101999.78;2090884;28;47468;-48
2021/10/09 00:50:19;;;;;;;;;23.25;20.50;;;;;16.32;61.21;101998.00;2092053;28;47651;-48
2021/10/09 00:51:20;;;;;;;;;25.40;24.40;;;;;16.31;61.23;101992.69;2091960;28;45567;-47
2021/10/09 00:52:24;;;;;;;;;21.75;21.00;;;;;16.29;61.08;101986.47;2091917;28;47225;-46
2021/10/09 00:53:26;;;;;;;;;21.40;20.80;;;;;16.28;61.35;101985.59;2091349;28;48549;-49
2021/10/09 00:54:29;;;;;;;;;21.60;20.80;;;;;16.29;61.27;101989.16;2091623;28;47127;-47
2021/10/09 00:55:30;;;;;;;;;19.80;19.80;;;;;16.25;61.39;101985.66;2091109;28;47872;-49
2021/10/09 00:56:36;;;;;;;;;20.80;20.80;;;;;16.25;61.64;101988.34;2091050;28;48304;-49
2021/10/09 00:57:39;;;;;;;;;18.40;18.20;;;;;16.26;61.16;101990.13;2091739;28;48371;-53
2021/10/09 00:58:44;;;;;;;;;19.60;19.60;;;;;16.25;61.49;101993.69;2091901;28;48428;-49
2021/10/09 00:59:48;;;;;;;;;20.00;18.40;;;;;16.23;61.06;101990.19;2090913;28;47817;-49
2021/10/09 01:00:50;;;;;;;;;20.60;20.20;;;;;16.23;61.76;101992.84;2083324;28;47053;-50
2021/10/09 01:01:51;;;;;;;;;13.60;13.40;;;;;16.23;61.41;101997.34;2091168;28;47405;-49
2021/10/09 01:02:51;;;;;;;;;22.00;22.00;;;;;16.23;61.32;101997.34;2091894;28;46128;-47
2021/10/09 01:03:53;;;;;;;;;24.50;22.75;;;;;16.22;61.48;101984.88;2091775;28;47530;-47
2021/10/09 01:04:55;;;;;;;;;20.00;18.00;;;;;16.21;61.24;102000.06;2091190;28;48130;-51
2021/10/09 01:05:56;;;;;;;;;21.20;20.40;;;;;16.21;61.22;101996.50;2090903;28;48211;-52
2021/10/09 01:06:56;;;;;;;;;19.00;18.00;;;;;16.19;61.68;101994.75;2091284;28;46932;-52
2021/10/09 01:07:57;;;;;;;;;21.75;17.50;;;;;16.19;61.62;101992.06;2082449;28;48270;-48
2021/10/09 01:08:58;;;;;;;;;22.20;21.60;;;;;16.17;61.57;101988.53;2091065;27;48062;-50
2021/10/09 01:10:00;;;;;;;;;17.80;17.80;;;;;16.17;61.39;101991.22;2091658;28;47425;-52
2021/10/09 01:11:01;;;;;;;;;20.80;20.00;;;;;16.17;61.41;101988.53;2090745;28;47298;-52
2021/10/09 01:12:03;;;;;;;;;21.00;20.75;;;;;16.17;61.31;101987.66;2082808;28;47007;-52
2021/10/09 01:13:05;;;;;;;;;25.60;21.60;;;;;16.16;61.50;101985.91;2082665;28;48344;-47
2021/10/09 01:14:06;;;;;;;;;20.00;19.40;;;;;16.16;61.78;101986.78;2083010;28;46561;-52
2021/10/09 01:15:20;;;;;;;;;22.60;20.20;;;;;16.14;61.50;101991.31;2090933;28;45341;-52
2021/10/09 01:16:27;;;;;;;;;18.20;17.40;;;;;16.14;61.79;101995.78;2091908;28;48130;-49
2021/10/09 01:17:28;;;;;;;;;20.80;19.80;;;;;16.12;61.45;101985.09;2090892;28;47309;-47
2021/10/09 01:18:28;;;;;;;;;26.00;23.40;;;;;16.12;61.71;101982.41;2092924;28;48241;-48
2021/10/09 01:19:29;;;;;;;;;17.00;15.25;;;;;16.11;61.78;101977.97;2098449;28;47354;-48
2021/10/09 01:20:50;;;;;;;;;23.50;21.75;;;;;16.11;61.53;101985.13;2091898;28;46848;-49
2021/10/09 01:21:51;;;;;;;;;21.20;21.00;;;;;16.10;61.55;101984.25;2091552;28;47895;-50
2021/10/09 01:22:51;;;;;;;;;25.00;24.25;;;;;16.10;61.91;101986.91;2090815;28;46070;-49
2021/10/09 01:23:53;;;;;;;;;26.00;23.00;;;;;16.10;61.87;101988.72;2090948;28;48126;-49
2021/10/09 01:24:53;;;;;;;;;22.20;19.60;;;;;16.09;61.56;101982.47;2090711;28;47081;-48
2021/10/09 01:25:54;;;;;;;;;24.50;24.50;;;;;16.09;62.05;101979.81;2087825;28;47283;-49
2021/10/09 01:26:54;;;;;;;;;21.50;21.50;;;;;16.10;61.68;101986.03;2090940;28;46960;-46
2021/10/09 01:27:55;;;;;;;;;25.50;24.25;;;;;16.10;61.76;101986.03;2091170;28;46994;-46
2021/10/09 01:28:55;;;;;;;;;23.00;21.25;;;;;16.09;61.89;101993.19;2091036;28;47360;-49
2021/10/09 01:29:56;;;;;;;;;21.00;21.00;;;;;16.08;61.95;101987.88;2090668;28;47426;-52
2021/10/09 01:30:56;;;;;;;;;25.50;23.50;;;;;16.06;61.54;101985.25;2091842;28;48011;-50
2021/10/09 01:31:58;;;;;;;;;20.50;18.75;;;;;16.07;62.00;101987.00;2091016;28;46941;-48
2021/10/09 01:33:00;;;;;;;;;23.60;23.40;;;;;16.06;61.95;101993.28;2091698;28;48477;-50
2021/10/09 01:34:01;;;;;;;;;17.80;17.80;;;;;16.06;61.58;101990.59;2090728;28;46582;-48
2021/10/09 01:35:07;;;;;;;;;18.80;18.80;;;;;16.04;62.04;101987.09;2082730;28;48259;-50
2021/10/09 01:36:09;;;;;;;;;22.40;18.40;;;;;16.05;61.91;101987.97;2090994;28;48197;-48
2021/10/09 01:37:09;;;;;;;;;21.80;20.00;;;;;16.04;62.02;101992.44;2091684;28;45366;-49
2021/10/09 01:38:10;;;;;;;;;20.75;20.75;;;;;16.04;61.80;101983.53;2091247;28;46448;-48
2021/10/09 01:39:11;;;;;;;;;26.00;22.25;;;;;16.04;61.88;101991.56;2091627;28;47556;-50
2021/10/09 01:40:11;;;;;;;;;25.20;24.20;;;;;16.03;62.16;101987.13;2090778;28;47626;-47
2021/10/09 01:41:13;;;;;;;;;22.50;21.25;;;;;16.02;61.65;101988.94;2082538;28;46873;-51
2021/10/09 01:42:14;;;;;;;;;23.60;22.40;;;;;16.02;61.78;101983.56;2090945;28;47291;-49
2021/10/09 01:43:17;;;;;;;;;19.20;19.00;;;;;16.01;62.07;101986.28;2091432;28;48487;-49
2021/10/09 01:44:18;;;;;;;;;28.80;23.60;;;;;16.00;61.99;101987.16;2090786;28;47144;-50
2021/10/09 01:45:18;;;;;;;;;25.75;24.50;;;;;15.99;61.98;101983.63;2090929;28;46991;-49
2021/10/09 01:46:19;;;;;;;;;24.25;22.75;;;;;15.99;61.82;101982.75;2088112;28;45321;-49
2021/10/09 01:47:19;;;;;;;;;22.00;21.50;;;;;15.98;61.66;101989.88;2090889;28;48308;-48
2021/10/09 01:48:30;;;;;;;;;25.25;23.25;;;;;15.97;61.69;101981.91;2090984;28;46124;-45
2021/10/09 01:49:31;;;;;;;;;25.80;25.20;;;;;15.96;61.71;101977.47;2091569;28;47462;-51
2021/10/09 01:50:31;;;;;;;;;27.00;22.75;;;;;15.95;62.14;101986.41;2091588;28;47410;-47
2021/10/09 01:51:33;;;;;;;;;21.25;18.50;;;;;15.94;61.80;101980.19;2091559;28;46853;-47
2021/10/09 01:52:33;;;;;;;;;22.00;21.20;;;;;15.93;62.23;101975.75;2090454;28;47174;-48
2021/10/09 01:53:34;;;;;;;;;24.75;22.25;;;;;15.93;61.89;101975.75;2090719;28;47369;-47
2021/10/09 01:54:35;;;;;;;;;22.20;22.20;;;;;15.94;62.31;101982.84;2091388;28;45362;-50
2021/10/09 01:55:37;;;;;;;;;22.75;20.00;;;;;15.93;62.17;101975.75;2090619;28;47027;-51
2021/10/09 01:56:39;;;;;;;;;14.20;13.20;;;;;15.94;62.01;101973.94;2090685;28;47459;-47
2021/10/09 01:57:39;;;;;;;;;21.80;20.60;;;;;15.93;61.96;101978.44;2090707;28;47868;-48
2021/10/09 01:58:40;;;;;;;;;23.50;23.50;;;;;15.94;62.31;101987.34;2091402;28;48422;-48
2021/10/09 01:59:40;;;;;;;;;21.75;21.75;;;;;15.94;62.25;101982.84;2091517;28;46985;-46
2021/10/09 02:00:40;;;;;;;;;24.25;23.25;;;;;15.94;62.19;101988.22;2091369;28;48221;-47
2021/10/09 02:01:41;;;;;;;;;22.25;19.75;;;;;15.93;61.74;101983.78;2091499;28;47084;-48
2021/10/09 02:02:42;;;;;;;;;23.00;23.00;;;;;15.90;62.08;101970.47;2091314;28;45967;-50
2021/10/09 02:03:43;;;;;;;;;22.25;22.25;;;;;15.90;62.22;101981.19;2091389;28;48129;-50
2021/10/09 02:04:43;;;;;;;;;24.25;24.00;;;;;15.89;62.09;101982.97;2090614;28;47366;-49
2021/10/09 02:05:44;;;;;;;;;25.00;23.00;;;;;15.88;62.00;101973.19;2090706;28;47190;-48
2021/10/09 02:06:44;;;;;;;;;27.00;25.00;;;;;15.88;61.94;101975.00;2091392;28;47217;-49
2021/10/09 02:07:45;;;;;;;;;25.25;25.25;;;;;15.86;62.28;101977.69;2091214;28;45410;-48
2021/10/09 02:08:45;;;;;;;;;30.25;26.75;;;;;15.87;61.86;101978.56;2091403;28;47242;-49
2021/10/09 02:09:46;;;;;;;;;23.25;23.25;;;;;15.86;62.31;101979.47;2090611;28;47791;-50
2021/10/09 02:11:01;;;;;;;;;26.00;26.00;;;;;15.85;62.24;101975.91;2090263;28;46320;-50
2021/10/09 02:12:02;;;;;;;;;23.80;23.80;;;;;15.85;62.24;101978.59;2087480;28;47154;-51
2021/10/09 02:13:05;;;;;;;;;26.75;24.00;;;;;15.84;61.80;101982.19;2090334;28;46794;-48
2021/10/09 02:14:22;;;;;;;;;30.20;30.00;;;;;15.83;62.33;101974.19;2091589;28;48219;-47
2021/10/09 02:15:30;;;;;;;;;27.60;24.60;;;;;15.84;62.33;101975.97;2091203;28;47451;-50
2021/10/09 02:17:54;;;;;;;;;24.60;23.20;;;;;15.82;62.34;101975.13;2091532;28;48313;-47
2021/10/09 02:18:37;;;;;;;;;27.80;25.80;;;;;15.82;62.48;101969.75;2083946;28;46414;-48
2021/10/09 02:25:02;;;;;;;;;23.40;19.40;;;;;15.79;62.15;101967.16;2091092;28;45372;-48
2021/10/09 02:26:03;;;;;;;;;24.80;24.40;;;;;15.78;62.22;101968.09;2087210;28;47572;-49
2021/10/09 02:27:04;;;;;;;;;25.60;25.60;;;;;15.77;62.22;101967.19;2091217;28;48248;-49
2021/10/09 02:28:05;;;;;;;;;26.75;24.75;;;;;15.75;62.03;101971.72;2091395;28;47180;-46
2021/10/09 02:29:05;;;;;;;;;25.75;20.75;;;;;15.74;62.31;101972.59;2091204;28;45472;-48
2021/10/09 02:30:06;;;;;;;;;21.00;20.75;;;;;15.74;62.10;101969.03;2091275;28;48250;-47
2021/10/09 02:31:07;;;;;;;;;25.40;23.80;;;;;15.73;62.42;101969.97;2090538;28;46876;-46
2021/10/09 02:32:07;;;;;;;;;21.50;19.25;;;;;15.72;62.21;101969.09;2090720;28;48000;-47
2021/10/09 02:33:08;;;;;;;;;26.50;26.25;;;;;15.71;62.03;101969.13;2085525;28;47500;-51
2021/10/09 02:34:09;;;;;;;;;25.25;25.00;;;;;15.69;62.03;101969.16;2089259;28;46156;-47
2021/10/09 02:35:10;;;;;;;;;26.25;25.00;;;;;15.69;62.37;101970.97;2090323;28;45337;-49
2021/10/09 02:36:11;;;;;;;;;23.50;23.50;;;;;15.67;62.07;101967.44;2090679;28;47984;-50
2021/10/09 02:37:12;;;;;;;;;23.00;22.00;;;;;15.67;62.26;101975.47;2090399;28;47198;-49
2021/10/09 02:38:12;;;;;;;;;23.25;22.25;;;;;15.66;61.95;101979.94;2090868;28;47095;-49
2021/10/09 02:39:13;;;;;;;;;26.25;25.00;;;;;15.64;62.21;101968.41;2090928;28;47126;-49
2021/10/09 02:40:13;;;;;;;;;26.00;22.75;;;;;15.63;62.00;101966.66;2091483;28;47126;-46
2021/10/09 02:41:14;;;;;;;;;26.50;25.00;;;;;15.64;62.00;101970.19;2091083;28;47889;-48
2021/10/09 02:42:14;;;;;;;;;23.00;22.00;;;;;15.63;62.26;101969.31;2091177;28;48275;-48
2021/10/09 02:43:15;;;;;;;;;26.50;26.00;;;;;15.63;62.19;101973.78;2090593;28;48252;-47
2021/10/09 02:44:15;;;;;;;;;20.25;20.25;;;;;15.61;62.14;101979.16;2083992;28;47816;-48
2021/10/09 02:45:16;;;;;;;;;19.75;19.75;;;;;15.59;61.95;101973.84;2084054;28;46978;-49
2021/10/09 02:46:16;;;;;;;;;21.00;21.00;;;;;15.59;62.09;101970.25;2091365;28;48277;-49
2021/10/09 02:47:17;;;;;;;;;26.75;23.00;;;;;15.57;62.21;101975.63;2091086;28;47358;-49
2021/10/09 02:48:17;;;;;;;;;25.00;25.00;;;;;15.57;62.36;101972.97;2091511;28;47978;-47
2021/10/09 02:49:18;;;;;;;;;26.50;24.50;;;;;15.56;62.13;101970.31;2082388;28;45295;-47
2021/10/09 02:50:18;;;;;;;;;25.50;25.50;;;;;15.55;62.13;101971.25;2082302;28;47189;-48
2021/10/09 02:51:19;;;;;;;;;22.50;20.75;;;;;15.54;62.27;101966.81;2089896;28;47326;-46
2021/10/09 02:52:19;;;;;;;;;28.00;25.25;;;;;15.54;61.95;101970.38;2091383;28;47282;-50
2021/10/09 02:53:20;;;;;;;;;19.00;17.75;;;;;15.53;62.08;101968.59;2090313;28;47305;-49
2021/10/09 02:54:21;;;;;;;;;25.00;24.50;;;;;15.53;62.17;101965.94;2090598;28;47310;-46
2021/10/09 02:55:21;;;;;;;;;23.25;23.00;;;;;15.53;62.20;101975.75;2090411;28;48077;-48
2021/10/09 02:56:22;;;;;;;;;23.00;21.50;;;;;15.51;62.17;101975.78;2090657;28;47205;-47
2021/10/09 02:57:22;;;;;;;;;24.75;23.25;;;;;15.49;62.49;101969.56;2089647;28;46698;-49
2021/10/09 02:58:23;;;;;;;;;23.25;22.75;;;;;15.49;61.93;101968.69;2085652;28;48089;-48
2021/10/09 02:59:23;;;;;;;;;24.75;24.75;;;;;15.49;62.18;101971.34;2090386;28;45269;-47
2021/10/09 03:00:24;;;;;;;;;28.25;28.25;;;;;15.49;61.98;101974.03;2091308;28;47280;-47
2021/10/09 03:01:24;;;;;;;;;29.75;24.75;;;;;15.48;62.16;101972.28;2091029;28;48063;-48
2021/10/09 03:02:25;;;;;;;;;26.25;23.25;;;;;15.47;62.00;101974.06;2091395;28;47045;-50
2021/10/09 03:03:25;;;;;;;;;28.00;25.00;;;;;15.46;62.45;101972.31;2089616;28;46517;-49
2021/10/09 03:04:25;;;;;;;;;23.25;21.25;;;;;15.45;62.24;101967.88;2091205;28;48053;-48
2021/10/09 03:05:26;;;;;;;;;23.50;23.50;;;;;15.45;62.30;101972.34;2091018;28;47782;-52
2021/10/09 03:06:27;;;;;;;;;20.00;18.00;;;;;15.44;61.88;101975.94;2090635;28;47241;-46
2021/10/09 03:07:27;;;;;;;;;28.00;27.75;;;;;15.43;61.95;101966.16;2090236;28;47172;-48
2021/10/09 03:08:28;;;;;;;;;25.75;23.75;;;;;15.42;62.45;101972.44;2091132;28;47245;-48
2021/10/09 03:09:28;;;;;;;;;23.50;22.75;;;;;15.41;62.16;101962.66;2090187;28;47899;-48
2021/10/09 03:10:29;;;;;;;;;24.00;22.75;;;;;15.40;61.95;101972.47;2091862;28;48410;-47
2021/10/09 03:11:29;;;;;;;;;27.25;25.00;;;;;15.40;62.14;101968.91;2093297;28;47328;-46
2021/10/09 03:12:30;;;;;;;;;20.50;20.50;;;;;15.39;62.59;101964.47;2091802;28;48123;-49
2021/10/09 03:13:31;;;;;;;;;23.25;21.00;;;;;15.39;62.17;101969.81;2091648;28;46650;-51
2021/10/09 03:14:32;;;;;;;;;27.75;26.50;;;;;15.38;62.10;101970.75;2092007;28;48313;-50
2021/10/09 03:15:32;;;;;;;;;25.00;24.20;;;;;15.37;62.09;101974.31;2092538;28;45593;-48
2021/10/09 03:16:33;;;;;;;;;22.75;22.25;;;;;15.37;62.36;101972.50;2092666;28;47032;-50
2021/10/09 03:17:33;;;;;;;;;25.50;23.50;;;;;15.36;61.84;101970.75;2092252;28;46638;-49
2021/10/09 03:18:33;;;;;;;;;28.25;27.75;;;;;15.34;61.93;101971.69;2094063;28;46272;-48
2021/10/09 03:19:34;;;;;;;;;23.25;22.00;;;;;15.32;62.15;101971.75;2099455;28;48675;-46
2021/10/09 03:20:36;;;;;;;;;29.00;28.00;;;;;15.32;61.92;101971.75;2092587;28;47150;-48
2021/10/09 03:21:36;;;;;;;;;23.40;20.60;;;;;15.30;61.99;101970.91;2090951;28;47495;-48
2021/10/09 03:22:38;;;;;;;;;27.50;22.75;;;;;15.29;62.35;101972.69;2092192;28;48064;-48
2021/10/09 03:23:38;;;;;;;;;25.40;25.40;;;;;15.27;61.91;101969.19;2092155;28;48297;-47
2021/10/09 03:24:38;;;;;;;;;26.00;23.00;;;;;15.27;62.13;101971.84;2092407;28;48053;-49
2021/10/09 03:25:39;;;;;;;;;25.00;23.75;;;;;15.27;62.20;101976.31;2092315;28;48192;-47
2021/10/09 03:26:40;;;;;;;;;24.00;24.00;;;;;15.25;62.06;101976.34;2092453;28;47462;-47
2021/10/09 03:27:41;;;;;;;;;27.25;27.25;;;;;15.24;62.33;101977.22;2092444;28;47486;-50
2021/10/09 03:28:41;;;;;;;;;30.00;29.80;;;;;15.23;62.17;101971.91;2092455;28;48283;-48
2021/10/09 03:29:42;;;;;;;;;24.25;22.00;;;;;15.23;62.22;101980.81;2091708;28;47806;-47
2021/10/09 03:30:42;;;;;;;;;29.75;28.50;;;;;15.22;62.40;101973.72;2083993;28;47335;-48
2021/10/09 03:31:43;;;;;;;;;28.25;28.25;;;;;15.21;62.14;101973.75;2092232;28;47239;-47
2021/10/09 03:32:43;;;;;;;;;25.00;24.50;;;;;15.20;62.25;101966.66;2092517;28;47255;-48
2021/10/09 03:33:44;;;;;;;;;25.50;25.25;;;;;15.19;62.27;101968.44;2090660;28;47142;-47
2021/10/09 03:34:44;;;;;;;;;27.00;26.25;;;;;15.19;62.31;101971.13;2088048;28;47062;-50
2021/10/09 03:35:45;;;;;;;;;27.50;26.00;;;;;15.18;62.58;101968.47;2091960;28;47252;-48
2021/10/09 03:36:46;;;;;;;;;30.50;27.25;;;;;15.18;62.39;101966.69;2092447;28;47161;-47
2021/10/09 03:37:46;;;;;;;;;31.50;29.50;;;;;15.18;62.47;101966.69;2092034;28;47136;-46
2021/10/09 03:38:47;;;;;;;;;27.50;27.25;;;;;15.18;62.43;101968.47;2088269;28;47338;-51
2021/10/09 03:39:49;;;;;;;;;27.50;27.00;;;;;15.17;62.48;101975.63;2088499;28;48286;-49
2021/10/09 03:40:56;;;;;;;;;28.20;28.20;;;;;15.14;62.44;101970.34;2092460;28;46088;-49
2021/10/09 03:42:03;;;;;;;;;28.80;28.20;;;;;15.13;62.27;101965.91;2092173;28;48383;-51
2021/10/09 03:43:09;;;;;;;;;23.40;22.40;;;;;15.12;62.27;101971.25;2092182;28;46307;-47
2021/10/09 03:44:10;;;;;;;;;30.40;28.40;;;;;15.11;62.56;101972.19;2092424;28;47257;-49
2021/10/09 03:45:29;;;;;;;;;24.25;21.50;;;;;15.10;62.41;101973.97;2091937;28;47199;-48
2021/10/09 03:46:31;;;;;;;;;27.00;25.60;;;;;15.08;62.29;101974.91;2091141;28;48492;-47
2021/10/09 03:48:44;;;;;;;;;30.75;28.50;;;;;15.09;62.69;101974.00;2092374;28;47247;-52
2021/10/09 03:49:52;;;;;;;;;29.60;25.00;;;;;15.08;62.73;101964.22;2092222;28;47448;-48
2021/10/09 03:52:42;;;;;;;;;26.80;26.40;;;;;15.05;62.45;101972.31;2085474;28;48114;-51
2021/10/09 03:53:35;;;;;;;;;26.20;26.20;;;;;15.02;62.79;101971.47;2085464;28;46254;-51
2021/10/09 03:54:36;;;;;;;;;28.25;28.25;;;;;15.01;62.68;101977.72;2088218;28;46808;-50
2021/10/09 03:55:36;;;;;;;;;29.75;25.25;;;;;15.01;62.79;101979.53;2090154;28;47325;-47
2021/10/09 03:56:37;;;;;;;;;30.00;27.50;;;;;15.00;62.81;101978.66;2090989;28;46990;-50
2021/10/09 03:57:37;;;;;;;;;27.75;27.75;;;;;14.99;62.64;101979.56;2091463;28;47201;-47
2021/10/09 03:58:38;;;;;;;;;31.50;29.50;;;;;15.00;62.61;101965.28;2092458;28;45281;-52
2021/10/09 03:59:38;;;;;;;;;31.75;27.25;;;;;15.00;62.81;101975.97;2091960;28;47937;-50
2021/10/09 04:00:39;;;;;;;;;32.25;29.75;;;;;15.00;62.43;101978.66;2092457;28;47168;-49
2021/10/09 04:01:39;;;;;;;;;35.25;30.00;;;;;14.99;62.61;101967.94;2092331;28;46852;-47
2021/10/09 04:02:40;;;;;;;;;32.00;30.25;;;;;14.99;62.93;101963.53;2092379;28;47351;-48
2021/10/09 04:03:40;;;;;;;;;31.00;28.50;;;;;14.99;62.47;101974.22;2091634;28;47268;-49
2021/10/09 04:04:41;;;;;;;;;32.25;30.75;;;;;14.98;63.07;101964.41;2091198;28;48259;-50
2021/10/09 04:05:41;;;;;;;;;28.00;27.50;;;;;14.98;62.62;101971.53;2092097;28;46197;-49
2021/10/09 04:06:42;;;;;;;;;29.25;27.75;;;;;14.98;62.47;101963.53;2091602;28;47011;-49
2021/10/09 04:07:43;;;;;;;;;34.50;32.00;;;;;14.97;62.75;101970.66;2091257;28;47929;-46
2021/10/09 04:08:43;;;;;;;;;30.80;30.00;;;;;14.97;62.65;101961.75;2091972;28;48421;-50
2021/10/09 04:09:43;;;;;;;;;26.50;26.25;;;;;14.95;62.63;101972.50;2092337;28;48146;-47
2021/10/09 04:10:44;;;;;;;;;33.00;29.75;;;;;14.95;62.78;101960.91;2091895;28;47082;-47
2021/10/09 04:11:45;;;;;;;;;32.25;30.00;;;;;14.93;62.97;101968.97;2093888;28;47104;-47
2021/10/09 04:12:45;;;;;;;;;28.00;28.00;;;;;14.93;62.88;101968.97;2095689;28;46718;-46
2021/10/09 04:13:46;;;;;;;;;30.25;29.50;;;;;14.92;62.60;101971.69;2085856;28;47293;-47
2021/10/09 04:14:46;;;;;;;;;36.25;32.25;;;;;14.90;62.97;101966.38;2092279;28;47213;-48
2021/10/09 04:15:47;;;;;;;;;30.25;29.50;;;;;14.90;62.83;101974.38;2092169;28;47154;-46
2021/10/09 04:16:47;;;;;;;;;29.75;28.25;;;;;14.91;62.65;101973.47;2092101;28;46515;-56
2021/10/09 04:17:48;;;;;;;;;37.25;31.25;;;;;14.91;62.48;101969.91;2091849;28;48062;-51
2021/10/09 04:18:48;;;;;;;;;31.75;30.50;;;;;14.90;63.37;101971.72;2097150;28;47258;-52
2021/10/09 04:19:48;;;;;;;;;30.00;29.50;;;;;14.90;63.04;101976.19;2095666;28;47976;-52
2021/10/09 04:20:49;;;;;;;;;29.75;29.25;;;;;14.90;62.83;101977.06;2090906;28;47152;-53
2021/10/09 04:21:49;;;;;;;;;33.50;30.75;;;;;14.89;62.70;101977.09;2091249;28;48022;-47
2021/10/09 04:22:51;;;;;;;;;31.75;29.75;;;;;14.89;63.13;101974.41;2091840;28;47271;-47
2021/10/09 04:23:51;;;;;;;;;32.60;30.00;;;;;14.88;63.03;101964.66;2092168;28;48001;-48
2021/10/09 04:24:52;;;;;;;;;32.25;29.75;;;;;14.89;62.80;101971.75;2092090;28;47190;-48
2021/10/09 04:25:52;;;;;;;;;32.00;29.75;;;;;14.88;62.80;101967.31;2091298;28;45095;-51
2021/10/09 04:26:53;;;;;;;;;34.75;30.75;;;;;14.87;62.71;101969.09;2091578;28;47386;-50
2021/10/09 04:27:53;;;;;;;;;31.75;29.75;;;;;14.85;63.05;101970.91;2092005;28;48072;-52
2021/10/09 04:28:54;;;;;;;;;32.25;30.00;;;;;14.86;63.06;101969.09;2092107;28;48029;-47
2021/10/09 04:29:54;;;;;;;;;28.00;28.00;;;;;14.85;62.93;101968.22;2088472;28;47671;-47
2021/10/09 04:30:54;;;;;;;;;27.75;25.00;;;;;14.85;62.88;101962.88;2086519;28;45205;-48
2021/10/09 04:31:55;;;;;;;;;31.75;28.50;;;;;14.84;62.73;101963.78;2091806;28;47144;-51
2021/10/09 04:32:56;;;;;;;;;31.75;29.00;;;;;14.83;62.99;101966.50;2092040;28;48317;-51
2021/10/09 04:33:56;;;;;;;;;36.25;32.25;;;;;14.83;63.04;101966.50;2091669;28;46298;-51
2021/10/09 04:34:57;;;;;;;;;37.75;32.75;;;;;14.82;62.88;101962.94;2092265;28;48171;-46
2021/10/09 04:35:58;;;;;;;;;34.25;30.75;;;;;14.82;62.97;101962.06;2091638;28;47103;-46
2021/10/09 04:36:58;;;;;;;;;34.40;31.20;;;;;14.81;62.68;101961.19;2092234;28;47286;-47
2021/10/09 04:38:05;;;;;;;;;30.50;29.00;;;;;14.82;62.68;101962.06;2091600;28;46388;-49
2021/10/09 04:39:05;;;;;;;;;33.00;30.00;;;;;14.81;63.00;101966.53;2087383;28;48522;-47
2021/10/09 04:40:07;;;;;;;;;30.00;28.50;;;;;14.81;63.04;101969.22;2083078;28;46557;-49
2021/10/09 04:41:07;;;;;;;;;34.20;31.40;;;;;14.81;63.10;101971.00;2082909;28;48368;-50
2021/10/09 04:42:07;;;;;;;;;29.00;29.00;;;;;14.80;62.76;101967.44;2091988;28;47070;-46
2021/10/09 04:43:08;;;;;;;;;33.25;31.00;;;;;14.80;62.74;101966.56;2091990;28;47136;-46
2021/10/09 04:44:08;;;;;;;;;35.00;31.25;;;;;14.79;63.05;101964.81;2090036;28;48041;-50
2021/10/09 04:45:09;;;;;;;;;33.25;29.00;;;;;14.79;62.91;101964.81;2091247;28;45510;-51
2021/10/09 04:46:10;;;;;;;;;33.00;31.25;;;;;14.77;62.93;101964.84;2091631;28;46988;-47
2021/10/09 04:47:10;;;;;;;;;29.50;27.25;;;;;14.77;62.94;101963.97;2091727;28;47496;-48
2021/10/09 04:48:10;;;;;;;;;30.00;29.75;;;;;14.77;62.72;101958.63;2092006;28;47708;-49